Ferraz de Vasconcelos, Brazil
Current Conditions -  °F | °C
As of 10:00 PM on Sunday 25 Jan 2015 (Local Time) from SBGR Reporting Station
Thunderstorm Thunderstorm  
Wind Chill: 75°   Ceiling: Unl
Heat Index: 75°   Visibility: 6mi
Dew Point: 70°   Wind: 5mph
Humidity: 83%   Direction: 140°SE
Pressure: 30.03"   Gusts: NA
Location:  23.54°S, 46.37°W
Report Text: SBGR 260000Z 14004KT 9999 VCTS FEW040 SCT050CB 24/21 Q1017
Loading
Personal Weather Stations






























Interactive Weather Map New forecast layout! Learn more

10-Day Weather Forecast

Advertisements
Track Severe Weather on mobile